createdAt,value
2018-10-11T00:00:50.267Z,983.106
2018-10-11T00:02:50.484Z,983.101
2018-10-11T00:04:50.162Z,983.105
2018-10-11T00:06:50.483Z,983.128
2018-10-11T00:08:49.754Z,983.141
2018-10-11T00:10:49.927Z,983.198
2018-10-11T00:12:50.109Z,983.215
2018-10-11T00:14:50.239Z,983.252
2018-10-11T00:16:49.651Z,983.299
2018-10-11T00:18:49.820Z,983.312
2018-10-11T00:20:50.013Z,983.341
2018-10-11T00:22:50.239Z,983.340
2018-10-11T00:24:50.471Z,983.309
2018-10-11T00:26:49.882Z,983.297
2018-10-11T00:28:50.037Z,983.240
2018-10-11T00:30:50.626Z,983.232
2018-10-11T00:32:50.461Z,983.198
2018-10-11T00:34:50.075Z,983.167
2018-10-11T00:36:50.480Z,983.113
2018-10-11T00:38:49.638Z,983.113
2018-10-11T00:40:49.873Z,983.045
2018-10-11T00:42:50.045Z,983.070
2018-10-11T00:44:50.281Z,983.074
2018-10-11T00:46:49.648Z,983.092
2018-10-11T00:48:49.853Z,983.131
2018-10-11T00:50:50.017Z,983.190
2018-10-11T00:52:50.195Z,983.200
2018-10-11T00:54:50.446Z,983.176
2018-10-11T00:56:50.131Z,983.126
2018-10-11T00:58:50.248Z,983.100
2018-10-11T01:00:50.503Z,983.065
2018-10-11T01:02:49.636Z,983.044
2018-10-11T01:04:50.164Z,982.988
2018-10-11T01:06:50.442Z,982.945
2018-10-11T01:08:49.671Z,982.938
2018-10-11T01:10:50.008Z,982.938
2018-10-11T01:12:50.194Z,982.937
2018-10-11T01:14:50.380Z,982.928
2018-10-11T01:16:49.843Z,982.920
2018-10-11T01:18:49.993Z,982.910
2018-10-11T01:20:50.214Z,982.885
2018-10-11T01:22:50.508Z,982.847
2018-10-11T01:24:49.774Z,982.856
2018-10-11T01:26:50.118Z,982.843
2018-10-11T01:28:50.381Z,982.792
2018-10-11T01:30:49.752Z,982.792
2018-10-11T01:32:49.965Z,982.786
2018-10-11T01:34:50.351Z,982.765
2018-10-11T01:36:49.749Z,982.733
2018-10-11T01:38:50.347Z,982.710
2018-10-11T01:40:50.288Z,982.685
2018-10-11T01:42:50.460Z,982.641
2018-10-11T01:44:49.715Z,982.641
2018-10-11T01:46:50.099Z,982.630
2018-10-11T01:48:50.245Z,982.642
2018-10-11T01:50:50.515Z,982.645
2018-10-11T01:52:49.776Z,982.705
2018-10-11T01:54:50.069Z,982.706
2018-10-11T01:56:50.749Z,982.672
2018-10-11T01:58:49.816Z,982.647
2018-10-11T02:00:49.954Z,982.570
2018-10-11T02:02:50.190Z,982.535
2018-10-11T02:04:49.640Z,982.523
2018-10-11T02:06:49.915Z,982.512
2018-10-11T02:08:50.175Z,982.488
2018-10-11T02:10:50.331Z,982.446
2018-10-11T02:12:49.632Z,982.453
2018-10-11T02:14:49.861Z,982.475
2018-10-11T02:16:50.305Z,982.470
2018-10-11T02:18:50.441Z,982.475
2018-10-11T02:20:49.738Z,982.466
2018-10-11T02:22:49.993Z,982.483
2018-10-11T02:24:50.223Z,982.497
2018-10-11T02:26:49.629Z,982.531
2018-10-11T02:28:49.845Z,982.543
2018-10-11T02:30:50.237Z,982.558
2018-10-11T02:32:50.482Z,982.553
2018-10-11T02:34:50.358Z,982.553
2018-10-11T02:36:49.835Z,982.593
2018-10-11T02:38:50.178Z,982.619
2018-10-11T02:40:50.409Z,982.619
2018-10-11T02:42:49.609Z,982.631
2018-10-11T02:44:49.834Z,982.624
2018-10-11T02:46:50.119Z,982.587
2018-10-11T02:48:50.312Z,982.569
2018-10-11T02:50:50.585Z,982.575
2018-10-11T02:52:49.780Z,982.596
2018-10-11T02:54:50.004Z,982.604
2018-10-11T02:56:50.349Z,982.644
2018-10-11T02:58:49.639Z,982.654
2018-10-11T03:00:49.938Z,982.666
2018-10-11T03:02:50.110Z,982.638
2018-10-11T03:04:50.611Z,982.618
2018-10-11T03:06:49.916Z,982.579
2018-10-11T03:08:50.031Z,982.552
2018-10-11T03:10:50.262Z,982.492
2018-10-11T03:12:50.446Z,982.492
2018-10-11T03:14:49.862Z,982.481
2018-10-11T03:16:50.252Z,982.482
2018-10-11T03:18:50.411Z,982.504
2018-10-11T03:20:50.550Z,982.500
2018-10-11T03:22:49.835Z,982.529
2018-10-11T03:24:50.025Z,982.546
2018-10-11T03:26:50.444Z,982.579
2018-10-11T03:28:49.709Z,982.607
2018-10-11T03:30:49.866Z,982.637
2018-10-11T03:32:50.010Z,982.633
2018-10-11T03:34:49.669Z,982.633
2018-10-11T03:36:50.131Z,982.643
2018-10-11T03:38:50.411Z,982.641
2018-10-11T03:40:49.636Z,982.616
2018-10-11T03:42:49.782Z,982.616
2018-10-11T03:44:49.876Z,982.586
2018-10-11T03:46:50.233Z,982.540
2018-10-11T03:48:50.382Z,982.472
2018-10-11T03:50:50.504Z,982.463
2018-10-11T03:52:49.695Z,982.456
2018-10-11T03:54:49.900Z,982.421
2018-10-11T03:56:50.258Z,982.411
2018-10-11T03:58:50.552Z,982.411
2018-10-11T04:00:49.747Z,982.383
2018-10-11T04:02:50.011Z,982.380
2018-10-11T04:04:50.574Z,982.376
2018-10-11T04:06:49.974Z,982.376
2018-10-11T04:08:50.228Z,982.399
2018-10-11T04:10:50.487Z,982.385
2018-10-11T04:12:49.638Z,982.376
2018-10-11T04:14:49.821Z,982.366
2018-10-11T04:16:50.251Z,982.394
2018-10-11T04:18:50.466Z,982.419
2018-10-11T04:20:50.590Z,982.430
2018-10-11T04:22:49.795Z,982.459
2018-10-11T04:24:49.969Z,982.460
2018-10-11T04:26:50.080Z,982.449
2018-10-11T04:28:50.241Z,982.447
2018-10-11T04:30:50.420Z,982.448
2018-10-11T04:32:50.532Z,982.435
2018-10-11T04:34:50.127Z,982.435
2018-10-11T04:36:50.542Z,982.503
2018-10-11T04:38:49.870Z,982.543
2018-10-11T04:40:49.987Z,982.638
2018-10-11T04:42:50.737Z,982.638
2018-10-11T04:44:50.581Z,982.704
2018-10-11T04:46:49.993Z,982.705
2018-10-11T04:48:50.149Z,982.679
2018-10-11T04:50:50.418Z,982.670
2018-10-11T04:52:50.534Z,982.689
2018-10-11T04:54:49.808Z,982.699
2018-10-11T04:56:50.161Z,982.669
2018-10-11T04:58:50.266Z,982.616
2018-10-11T05:00:50.402Z,982.592
2018-10-11T05:02:50.488Z,982.582
2018-10-11T05:04:50.109Z,982.619
2018-10-11T05:06:49.680Z,982.640
2018-10-11T05:08:49.912Z,982.638
2018-10-11T05:10:50.073Z,982.650
2018-10-11T05:12:50.320Z,982.666
2018-10-11T05:14:50.482Z,982.701
2018-10-11T05:16:49.827Z,982.724
2018-10-11T05:18:49.974Z,982.775
2018-10-11T05:20:50.154Z,982.798
2018-10-11T05:22:50.357Z,982.812
2018-10-11T05:24:50.565Z,982.832
2018-10-11T05:26:50.090Z,982.823
2018-10-11T05:28:50.331Z,982.795
2018-10-11T05:30:49.690Z,982.796
2018-10-11T05:32:49.895Z,982.806
2018-10-11T05:34:49.770Z,982.857
2018-10-11T05:36:49.758Z,982.878
2018-10-11T05:38:50.089Z,982.883
2018-10-11T05:40:50.236Z,982.882
2018-10-11T05:42:50.430Z,982.905
2018-10-11T05:44:49.702Z,982.905
2018-10-11T05:46:50.087Z,982.967
2018-10-11T05:48:50.427Z,982.998
2018-10-11T05:50:49.616Z,983.013
2018-10-11T05:52:49.813Z,983.015
2018-10-11T05:54:50.078Z,983.035
2018-10-11T05:56:50.913Z,983.043
2018-10-11T05:58:49.693Z,983.024
2018-10-11T06:00:49.851Z,983.023
2018-10-11T06:02:50.028Z,983.018
2018-10-11T06:04:49.746Z,983.012
2018-10-11T06:06:50.029Z,982.978
2018-10-11T06:08:50.172Z,982.947
2018-10-11T06:10:50.328Z,982.942
2018-10-11T06:12:50.600Z,982.942
2018-10-11T06:14:49.742Z,982.963
2018-10-11T06:16:50.049Z,982.985
2018-10-11T06:18:50.179Z,982.958
2018-10-11T06:20:50.319Z,982.956
2018-10-11T06:22:50.535Z,982.968
2018-10-11T06:24:49.963Z,982.979
2018-10-11T06:26:49.984Z,982.986
2018-10-11T06:28:50.165Z,982.977
2018-10-11T06:30:50.478Z,982.974
2018-10-11T06:32:49.756Z,982.992
2018-10-11T06:34:50.247Z,983.061
2018-10-11T06:36:49.647Z,983.072
2018-10-11T06:38:49.813Z,983.094
2018-10-11T06:40:50.170Z,983.113
2018-10-11T06:42:50.471Z,983.083
2018-10-11T06:44:49.621Z,983.078
2018-10-11T06:46:49.955Z,983.079
2018-10-11T06:48:50.101Z,983.071
2018-10-11T06:50:50.310Z,983.066
2018-10-11T06:52:49.672Z,983.030
2018-10-11T06:54:50.054Z,983.023
2018-10-11T06:56:50.419Z,982.992
2018-10-11T06:58:49.630Z,982.994
2018-10-11T07:00:50.045Z,983.008
2018-10-11T07:02:50.218Z,983.017
2018-10-11T07:04:49.694Z,983.015
2018-10-11T07:06:50.002Z,983.029
2018-10-11T07:08:50.200Z,983.013
2018-10-11T07:10:50.449Z,982.958
2018-10-11T07:12:50.589Z,982.937
2018-10-11T07:14:49.745Z,982.896
2018-10-11T07:16:50.068Z,982.889
2018-10-11T07:18:50.294Z,982.906
2018-10-11T07:20:50.479Z,982.945
2018-10-11T07:22:49.716Z,982.945
2018-10-11T07:24:49.859Z,982.955
2018-10-11T07:26:50.233Z,982.980
2018-10-11T07:28:50.445Z,982.971
2018-10-11T07:30:49.696Z,982.964
2018-10-11T07:32:49.930Z,982.996
2018-10-11T07:34:51.077Z,983.024
2018-10-11T07:36:49.777Z,983.068
2018-10-11T07:38:49.976Z,983.068
2018-10-11T07:40:50.390Z,983.035
2018-10-11T07:42:49.706Z,983.031
2018-10-11T07:44:49.885Z,983.033
2018-10-11T07:46:50.427Z,983.054
2018-10-11T07:48:49.615Z,983.065
2018-10-11T07:50:49.886Z,983.093
2018-10-11T07:52:50.283Z,983.095
2018-10-11T07:54:49.796Z,983.097
2018-10-11T07:56:50.199Z,983.106
2018-10-11T07:58:50.344Z,983.076
2018-10-11T08:00:50.541Z,983.075
2018-10-11T08:02:49.788Z,983.079
2018-10-11T08:04:50.300Z,983.110
2018-10-11T08:06:49.725Z,983.116
2018-10-11T08:08:50.082Z,983.104
2018-10-11T08:10:51.093Z,983.108
2018-10-11T08:12:50.112Z,983.115
2018-10-11T08:14:50.292Z,983.110
2018-10-11T08:16:50.404Z,983.107
2018-10-11T08:18:50.149Z,983.105
2018-10-11T08:20:49.865Z,983.084
2018-10-11T08:22:50.035Z,983.081
2018-10-11T08:24:50.642Z,983.069
2018-10-11T08:26:50.404Z,983.058
2018-10-11T08:28:50.255Z,983.069
2018-10-11T08:30:50.409Z,983.098
2018-10-11T08:32:50.283Z,983.106
2018-10-11T08:34:50.514Z,983.068
2018-10-11T08:36:50.080Z,983.036
2018-10-11T08:38:50.347Z,983.032
2018-10-11T08:40:50.550Z,983.061
2018-10-11T08:42:49.778Z,983.079
2018-10-11T08:44:49.971Z,983.093
2018-10-11T08:46:50.345Z,983.072
2018-10-11T08:48:50.426Z,983.072
2018-10-11T08:50:50.890Z,983.041
2018-10-11T08:52:49.609Z,983.033
2018-10-11T08:54:50.156Z,983.024
2018-10-11T08:56:49.788Z,983.033
2018-10-11T08:58:49.957Z,983.048
2018-10-11T09:00:50.154Z,983.058
2018-10-11T09:02:50.470Z,983.055
2018-10-11T09:04:50.180Z,983.053
2018-10-11T09:06:50.589Z,983.042
2018-10-11T09:08:49.760Z,983.036
2018-10-11T09:10:50.120Z,983.025
2018-10-11T09:12:49.716Z,983.022
2018-10-11T09:14:49.964Z,983.022
2018-10-11T09:16:50.324Z,983.022
2018-10-11T09:18:50.588Z,982.985
2018-10-11T09:20:49.765Z,982.987
2018-10-11T09:22:49.974Z,982.987
2018-10-11T09:24:50.118Z,982.984
2018-10-11T09:26:50.581Z,982.954
2018-10-11T09:28:49.853Z,982.934
2018-10-11T09:30:50.054Z,982.939
2018-10-11T09:32:50.470Z,982.969
2018-10-11T09:34:50.425Z,982.977
2018-10-11T09:36:50.233Z,982.974
2018-10-11T09:38:50.376Z,982.957
2018-10-11T09:40:49.714Z,982.946
2018-10-11T09:42:49.828Z,982.958
2018-10-11T09:44:50.205Z,982.962
2018-10-11T09:46:50.601Z,982.962
2018-10-11T09:48:50.270Z,982.948
2018-10-11T09:50:50.500Z,982.946
2018-10-11T09:52:49.729Z,982.974
2018-10-11T09:54:50.144Z,982.955
2018-10-11T09:56:50.178Z,982.953
2018-10-11T09:58:50.074Z,982.955
2018-10-11T10:00:50.290Z,982.945
2018-10-11T10:02:49.830Z,982.945
2018-10-11T10:04:50.543Z,982.949
2018-10-11T10:06:49.938Z,982.952
2018-10-11T10:08:50.176Z,982.987
2018-10-11T10:10:50.368Z,982.985
2018-10-11T10:12:50.560Z,982.955
2018-10-11T10:14:49.777Z,982.937
2018-10-11T10:16:50.080Z,982.939
2018-10-11T10:18:50.226Z,982.938
2018-10-11T10:20:50.429Z,982.913
2018-10-11T10:22:50.569Z,982.913
2018-10-11T10:24:49.829Z,982.868
2018-10-11T10:26:50.503Z,982.828
2018-10-11T10:28:50.303Z,982.812
2018-10-11T10:30:50.567Z,982.812
2018-10-11T10:32:49.724Z,982.737
2018-10-11T10:34:50.266Z,982.711
2018-10-11T10:36:49.627Z,982.698
2018-10-11T10:38:49.794Z,982.698
2018-10-11T10:40:50.039Z,982.706
2018-10-11T10:42:50.236Z,982.673
2018-10-11T10:44:50.485Z,982.650
2018-10-11T10:46:49.885Z,982.609
2018-10-11T10:48:50.252Z,982.573
2018-10-11T10:50:49.787Z,982.540
2018-10-11T10:52:50.042Z,982.494
2018-10-11T10:54:50.250Z,982.473
2018-10-11T10:56:49.642Z,982.483
2018-10-11T10:58:49.831Z,982.550
2018-10-11T11:00:49.955Z,982.552
2018-10-11T11:02:50.117Z,982.556
2018-10-11T11:04:50.505Z,982.562
2018-10-11T11:06:49.839Z,982.548
2018-10-11T11:08:49.987Z,982.548
2018-10-11T11:10:50.181Z,982.523
2018-10-11T11:12:50.287Z,982.523
2018-10-11T11:14:50.550Z,982.540
2018-10-11T11:16:49.906Z,982.516
2018-10-11T11:18:50.373Z,982.492
2018-10-11T11:20:49.870Z,982.489
2018-10-11T11:22:50.009Z,982.500
2018-10-11T11:24:50.126Z,982.473
2018-10-11T11:26:50.450Z,982.473
2018-10-11T11:28:50.589Z,982.473
2018-10-11T11:30:49.894Z,982.429
2018-10-11T11:32:50.209Z,982.429
2018-10-11T11:34:49.882Z,982.408
2018-10-11T11:36:50.269Z,982.397
2018-10-11T11:38:50.437Z,982.370
2018-10-11T11:40:49.782Z,982.381
2018-10-11T11:42:49.952Z,982.368
2018-10-11T11:44:50.139Z,982.350
2018-10-11T11:46:49.652Z,982.324
2018-10-11T11:48:50.004Z,982.314
2018-10-11T11:50:50.370Z,982.323
2018-10-11T11:52:49.837Z,982.317
2018-10-11T11:54:50.144Z,982.306
2018-10-11T11:56:50.447Z,982.310
2018-10-11T11:58:49.631Z,982.324
2018-10-11T12:00:49.935Z,982.335
2018-10-11T12:02:50.914Z,982.334
2018-10-11T12:04:50.313Z,982.318
2018-10-11T12:06:49.788Z,982.328
2018-10-11T12:08:50.004Z,982.279
2018-10-11T12:10:50.555Z,982.279
2018-10-11T12:12:50.273Z,982.256
2018-10-11T12:14:50.433Z,982.257
2018-10-11T12:16:49.992Z,982.257
2018-10-11T12:18:49.640Z,982.248
2018-10-11T12:20:49.936Z,982.243
2018-10-11T12:22:50.145Z,982.205
2018-10-11T12:24:50.478Z,982.232
2018-10-11T12:26:50.261Z,982.221
2018-10-11T12:28:50.653Z,982.218
2018-10-11T12:30:50.273Z,982.231
2018-10-11T12:32:50.564Z,982.248
2018-10-11T12:34:50.224Z,982.268
2018-10-11T12:36:49.704Z,982.278
2018-10-11T12:38:50.466Z,982.237
2018-10-11T12:40:50.486Z,982.222
2018-10-11T12:42:49.828Z,982.221
2018-10-11T12:44:50.040Z,982.238
2018-10-11T12:46:50.442Z,982.235
2018-10-11T12:48:49.738Z,982.237
2018-10-11T12:50:49.990Z,982.237
2018-10-11T12:52:50.348Z,982.259
2018-10-11T12:54:50.614Z,982.259
2018-10-11T12:56:50.680Z,982.271
2018-10-11T12:58:50.465Z,982.271
2018-10-11T13:00:49.891Z,982.244
2018-10-11T13:02:50.121Z,982.242
2018-10-11T13:04:50.412Z,982.245
2018-10-11T13:06:49.943Z,982.173
2018-10-11T13:08:50.342Z,982.160
2018-10-11T13:10:50.497Z,982.139
2018-10-11T13:12:49.783Z,982.139
2018-10-11T13:14:50.008Z,982.169
2018-10-11T13:16:50.404Z,982.132
2018-10-11T13:18:49.686Z,982.136
2018-10-11T13:20:49.875Z,982.130
2018-10-11T13:22:50.389Z,982.138
2018-10-11T13:24:50.007Z,982.136
2018-10-11T13:26:50.318Z,982.167
2018-10-11T13:28:50.941Z,982.166
2018-10-11T13:30:50.180Z,982.172
2018-10-11T13:32:50.397Z,982.131
2018-10-11T13:34:50.725Z,982.116
2018-10-11T13:36:50.183Z,982.114
2018-10-11T13:38:50.372Z,982.072
2018-10-11T13:40:59.549Z,982.069
2018-10-11T13:42:49.684Z,982.083
2018-10-11T13:44:49.866Z,982.083
2018-10-11T13:46:50.305Z,982.065
2018-10-11T13:48:50.451Z,982.061
2018-10-11T13:50:50.029Z,982.075
2018-10-11T13:52:50.371Z,982.071
2018-10-11T13:54:49.868Z,982.052
2018-10-11T13:57:03.348Z,982.055
2018-10-11T13:58:50.368Z,982.056
2018-10-11T14:00:50.277Z,982.042
2018-10-11T14:02:50.192Z,982.027
2018-10-11T14:04:50.060Z,981.984
2018-10-11T14:06:49.873Z,981.951
2018-10-11T14:08:50.138Z,981.961
2018-10-11T14:10:50.598Z,981.990
2018-10-11T14:12:49.867Z,981.999
2018-10-11T14:14:50.021Z,981.971
2018-10-11T14:16:50.287Z,982.002
2018-10-11T14:18:50.513Z,981.988
2018-10-11T14:20:49.891Z,981.990
2018-10-11T14:22:50.045Z,981.987
2018-10-11T14:24:50.225Z,981.988
2018-10-11T14:26:49.727Z,981.983
2018-10-11T14:28:50.043Z,981.962
2018-10-11T14:30:50.313Z,981.939
2018-10-11T14:32:50.480Z,981.920
2018-10-11T14:34:50.134Z,981.887
2018-10-11T14:36:51.360Z,981.878
2018-10-11T14:38:50.595Z,981.880
2018-10-11T14:40:49.823Z,981.862
2018-10-11T14:42:50.046Z,981.852
2018-10-11T14:44:50.281Z,981.859
2018-10-11T14:46:49.738Z,981.859
2018-10-11T14:48:50.201Z,981.850
2018-10-11T14:50:50.565Z,981.867
2018-10-11T14:52:50.053Z,981.887
2018-10-11T14:54:50.304Z,981.918
2018-10-11T14:56:49.806Z,981.918
2018-10-11T14:58:50.021Z,981.951
2018-10-11T15:00:50.355Z,981.958
2018-10-11T15:02:50.982Z,981.977
2018-10-11T15:04:50.080Z,981.993
2018-10-11T15:06:50.433Z,981.990
2018-10-11T15:08:49.722Z,982.003
2018-10-11T15:10:50.760Z,982.050
2018-10-11T15:12:50.330Z,982.099
2018-10-11T15:14:50.619Z,982.129
2018-10-11T15:16:49.943Z,982.160
2018-10-11T15:18:50.126Z,982.184
2018-10-11T15:20:50.303Z,982.210
2018-10-11T15:22:49.789Z,982.235
2018-10-11T15:24:50.017Z,982.246
2018-10-11T15:26:50.367Z,982.264
2018-10-11T15:28:50.603Z,982.266
2018-10-11T15:30:50.331Z,982.296
2018-10-11T15:32:49.733Z,982.296
2018-10-11T15:34:50.415Z,982.347
2018-10-11T15:36:49.978Z,982.355
2018-10-11T15:38:50.195Z,982.370
2018-10-11T15:40:50.429Z,982.384
2018-10-11T15:42:49.613Z,982.390
2018-10-11T15:44:49.845Z,982.379
2018-10-11T15:46:50.618Z,982.364
2018-10-11T15:48:50.435Z,982.388
2018-10-11T15:50:49.641Z,982.398
2018-10-11T15:52:49.789Z,982.407
2018-10-11T15:54:49.961Z,982.406
2018-10-11T15:56:50.456Z,982.388
2018-10-11T15:58:49.639Z,982.383
2018-10-11T16:00:49.808Z,982.383
2018-10-11T16:02:49.976Z,982.413
2018-10-11T16:04:50.379Z,982.417
2018-10-11T16:06:49.854Z,982.450
2018-10-11T16:08:50.328Z,982.454
2018-10-11T16:10:49.796Z,982.476
2018-10-11T16:12:49.884Z,982.511
2018-10-11T16:14:49.983Z,982.530
2018-10-11T16:16:50.417Z,982.551
2018-10-11T16:18:50.596Z,982.579
2018-10-11T16:20:49.966Z,982.604
2018-10-11T16:22:50.137Z,982.610
2018-10-11T16:24:50.822Z,982.652
2018-10-11T16:26:50.049Z,982.682
2018-10-11T16:28:50.243Z,982.690
2018-10-11T16:30:50.449Z,982.708
2018-10-11T16:32:49.667Z,982.730
2018-10-11T16:34:50.177Z,982.747
2018-10-11T16:36:50.473Z,982.794
2018-10-11T16:38:49.619Z,982.806
2018-10-11T16:40:50.062Z,982.825
2018-10-11T16:42:50.308Z,982.825
2018-10-11T16:44:50.544Z,982.840
2018-10-11T16:46:49.956Z,982.864
2018-10-11T16:48:50.103Z,982.877
2018-10-11T16:50:50.338Z,982.916
2018-10-11T16:52:49.643Z,982.923
2018-10-11T16:54:49.848Z,982.959
2018-10-11T16:56:50.190Z,982.993
2018-10-11T16:58:50.391Z,983.015
2018-10-11T17:00:50.487Z,983.038
2018-10-11T17:02:49.733Z,983.038
2018-10-11T17:04:50.171Z,983.078
2018-10-11T17:06:50.446Z,983.075
2018-10-11T17:08:49.623Z,983.091
2018-10-11T17:10:49.833Z,983.113
2018-10-11T17:12:50.024Z,983.125
2018-10-11T17:14:50.161Z,983.143
2018-10-11T17:16:50.631Z,983.160
2018-10-11T17:18:49.832Z,983.148
2018-10-11T17:20:50.021Z,983.142
2018-10-11T17:22:50.290Z,983.134
2018-10-11T17:24:50.473Z,983.168
2018-10-11T17:26:49.921Z,983.224
2018-10-11T17:28:50.040Z,983.239
2018-10-11T17:30:50.265Z,983.262
2018-10-11T17:32:50.413Z,983.274
2018-10-11T17:34:49.957Z,983.288
2018-10-11T17:36:50.238Z,983.299
2018-10-11T17:38:50.359Z,983.311
2018-10-11T17:40:49.627Z,983.308
2018-10-11T17:42:49.935Z,983.308
2018-10-11T17:44:50.124Z,983.300
2018-10-11T17:46:50.515Z,983.319
2018-10-11T17:48:49.732Z,983.319
2018-10-11T17:50:49.914Z,983.319
2018-10-11T17:52:50.225Z,983.304
2018-10-11T17:54:50.459Z,983.301
2018-10-11T17:56:50.501Z,983.295
2018-10-11T17:58:50.126Z,983.304
2018-10-11T18:00:50.305Z,983.307
2018-10-11T18:02:49.642Z,983.317
2018-10-11T18:04:50.125Z,983.347
2018-10-11T18:06:49.684Z,983.361
2018-10-11T18:08:49.823Z,983.399
2018-10-11T18:10:49.965Z,983.421
2018-10-11T18:12:50.079Z,983.424
2018-10-11T18:14:50.269Z,983.436
2018-10-11T18:16:49.682Z,983.461
2018-10-11T18:18:49.880Z,983.486
2018-10-11T18:20:50.025Z,983.520
2018-10-11T18:22:50.234Z,983.538
2018-10-11T18:24:50.445Z,983.557
2018-10-11T18:26:49.915Z,983.541
2018-10-11T18:28:50.174Z,983.536
2018-10-11T18:30:50.377Z,983.514
2018-10-11T18:32:50.568Z,983.508
2018-10-11T18:34:50.219Z,983.524
2018-10-11T18:36:49.686Z,983.524
2018-10-11T18:38:49.861Z,983.595
2018-10-11T18:40:49.952Z,983.622
2018-10-11T18:42:50.133Z,983.622
2018-10-11T18:44:50.652Z,983.633
2018-10-11T18:46:49.885Z,983.633
2018-10-11T18:48:50.034Z,983.658
2018-10-11T18:50:50.393Z,983.676
2018-10-11T18:52:50.085Z,983.688
2018-10-11T18:54:50.251Z,983.719
2018-10-11T18:56:49.648Z,983.752
2018-10-11T18:58:49.808Z,983.770
2018-10-11T19:00:49.962Z,983.794
2018-10-11T19:02:50.144Z,983.806
2018-10-11T19:04:49.783Z,983.847
2018-10-11T19:06:50.070Z,983.849
2018-10-11T19:08:50.219Z,983.859
2018-10-11T19:10:50.387Z,983.887
2018-10-11T19:12:50.547Z,983.890
2018-10-11T19:14:49.743Z,983.933
2018-10-11T19:16:50.094Z,983.930
2018-10-11T19:18:50.340Z,983.954
2018-10-11T19:20:50.792Z,983.954
2018-10-11T19:22:50.365Z,983.993
2018-10-11T19:24:50.517Z,984.010
2018-10-11T19:26:49.833Z,984.014
2018-10-11T19:28:49.946Z,984.012
2018-10-11T19:30:50.262Z,984.007
2018-10-11T19:32:49.794Z,984.015
2018-10-11T19:34:50.256Z,984.022
2018-10-11T19:36:49.742Z,984.029
2018-10-11T19:38:49.865Z,984.017
2018-10-11T19:40:49.967Z,984.027
2018-10-11T19:42:50.173Z,984.021
2018-10-11T19:44:50.347Z,984.007
2018-10-11T19:46:49.747Z,984.012
2018-10-11T19:48:49.831Z,984.006
2018-10-11T19:50:50.044Z,984.014
2018-10-11T19:52:50.284Z,984.010
2018-10-11T19:54:50.422Z,984.015
2018-10-11T19:56:49.775Z,984.037
2018-10-11T19:58:49.957Z,984.066
2018-10-11T20:00:50.238Z,984.083
2018-10-11T20:02:49.621Z,984.120
2018-10-11T20:04:50.255Z,984.127
2018-10-11T20:06:50.549Z,984.151
2018-10-11T20:08:49.713Z,984.164
2018-10-11T20:10:49.873Z,984.181
2018-10-11T20:12:50.061Z,984.200
2018-10-11T20:14:50.200Z,984.199
2018-10-11T20:16:50.515Z,984.194
2018-10-11T20:18:49.731Z,984.211
2018-10-11T20:20:49.941Z,984.215
2018-10-11T20:22:50.088Z,984.226
2018-10-11T20:24:50.323Z,984.228
2018-10-11T20:26:49.793Z,984.253
2018-10-11T20:28:49.919Z,984.265
2018-10-11T20:30:50.136Z,984.277
2018-10-11T20:32:50.400Z,984.311
2018-10-11T20:34:50.107Z,984.333
2018-10-11T20:36:50.586Z,984.335
2018-10-11T20:38:49.717Z,984.333
2018-10-11T20:40:49.840Z,984.334
2018-10-11T20:42:50.000Z,984.371
2018-10-11T20:44:50.279Z,984.397
2018-10-11T20:46:49.845Z,984.404
2018-10-11T20:48:50.017Z,984.419
2018-10-11T20:50:50.206Z,984.435
2018-10-11T20:52:50.458Z,984.452
2018-10-11T20:54:49.622Z,984.464
2018-10-11T20:56:49.890Z,984.525
2018-10-11T20:58:50.026Z,984.537
2018-10-11T21:00:50.257Z,984.530
2018-10-11T21:02:50.471Z,984.510
2018-10-11T21:04:50.119Z,984.504
2018-10-11T21:06:50.477Z,984.499
2018-10-11T21:08:49.629Z,984.522
2018-10-11T21:10:49.784Z,984.522
2018-10-11T21:12:49.955Z,984.558
2018-10-11T21:14:50.109Z,984.600
2018-10-11T21:16:50.419Z,984.616
2018-10-11T21:18:49.621Z,984.625
2018-10-11T21:20:49.884Z,984.619
2018-10-11T21:22:49.987Z,984.610
2018-10-11T21:24:50.174Z,984.629
2018-10-11T21:26:50.538Z,984.688
2018-10-11T21:28:49.693Z,984.728
2018-10-11T21:30:49.835Z,984.783
2018-10-11T21:32:49.988Z,984.801
2018-10-11T21:34:50.481Z,984.806
2018-10-11T21:36:49.863Z,984.808
2018-10-11T21:38:50.053Z,984.791
2018-10-11T21:40:50.153Z,984.792
2018-10-11T21:42:50.447Z,984.796
2018-10-11T21:44:50.583Z,984.796
2018-10-11T21:46:49.949Z,984.810
2018-10-11T21:48:50.201Z,984.817
2018-10-11T21:50:50.378Z,984.814
2018-10-11T21:52:50.896Z,984.830
2018-10-11T21:54:50.310Z,984.838
2018-10-11T21:56:49.899Z,984.848
2018-10-11T21:58:50.069Z,984.857
2018-10-11T22:00:50.219Z,984.864
2018-10-11T22:02:50.176Z,984.875
2018-10-11T22:04:49.746Z,984.907
2018-10-11T22:06:50.139Z,984.926
2018-10-11T22:08:50.389Z,984.936
2018-10-11T22:10:50.501Z,984.942
2018-10-11T22:12:49.719Z,984.942
2018-10-11T22:14:50.537Z,984.940
2018-10-11T22:16:50.184Z,984.933
2018-10-11T22:18:50.291Z,984.929
2018-10-11T22:20:50.764Z,984.937
2018-10-11T22:22:50.294Z,984.967
2018-10-11T22:24:50.611Z,984.978
2018-10-11T22:26:49.991Z,985.018
2018-10-11T22:28:50.135Z,985.044
2018-10-11T22:30:50.246Z,985.044
2018-10-11T22:32:50.487Z,985.081
2018-10-11T22:34:50.015Z,985.095
2018-10-11T22:36:50.419Z,985.110
2018-10-11T22:38:49.646Z,985.116
2018-10-11T22:40:49.790Z,985.126
2018-10-11T22:42:50.132Z,985.133
2018-10-11T22:44:50.276Z,985.170
2018-10-11T22:46:49.760Z,985.223
2018-10-11T22:48:49.892Z,985.236
2018-10-11T22:50:50.130Z,985.279
2018-10-11T22:52:50.253Z,985.311
2018-10-11T22:54:50.524Z,985.311
2018-10-11T22:56:49.854Z,985.360
2018-10-11T22:58:50.098Z,985.369
2018-10-11T23:00:50.272Z,985.417
2018-10-11T23:02:50.545Z,985.448
2018-10-11T23:04:50.230Z,985.487
2018-10-11T23:06:50.570Z,985.510
2018-10-11T23:08:49.722Z,985.547
2018-10-11T23:10:49.905Z,985.572
2018-10-11T23:12:50.079Z,985.588
2018-10-11T23:14:50.699Z,985.607
2018-10-11T23:16:49.777Z,985.617
2018-10-11T23:18:49.937Z,985.624
2018-10-11T23:20:50.109Z,985.628
2018-10-11T23:22:50.255Z,985.628
2018-10-11T23:24:50.466Z,985.646
2018-10-11T23:26:49.919Z,985.646
2018-10-11T23:28:50.112Z,985.651
2018-10-11T23:30:50.265Z,985.653
2018-10-11T23:32:50.458Z,985.651
2018-10-11T23:34:50.224Z,985.652
2018-10-11T23:36:49.740Z,985.646
2018-10-11T23:38:49.897Z,985.650
2018-10-11T23:40:50.093Z,985.674
2018-10-11T23:42:50.186Z,985.684
2018-10-11T23:44:50.355Z,985.694
2018-10-11T23:46:49.859Z,985.721
2018-10-11T23:48:50.093Z,985.767
2018-10-11T23:50:50.275Z,985.765
2018-10-11T23:52:50.445Z,985.772
2018-10-11T23:54:49.739Z,985.782
2018-10-11T23:56:50.063Z,985.786
2018-10-11T23:58:50.332Z,985.796
